Time;durP1;ratioP1;P1;durP2;ratioP2;P2;SDS_P1;SDS_P2;PMS_P1;PMS_P2;Temp;Humidity;BMP_temperature;BMP_pressure;BME280_temperature;BME280_humidity;BME280_pressure;Samples;Min_cycle;Max_cycle;Signal;HPM_P1;HPM_P2
2021/12/03 00:00:33;;;;;;;56.60;38.90;;;;;;;-1.49;100.00;100981.47;5121925;28;20028;-73
2021/12/03 00:02:59;;;;;;;55.38;37.72;;;;;;;-1.46;100.00;100973.88;5124158;28;20420;-72
2021/12/03 00:05:24;;;;;;;53.80;39.08;;;;;;;-1.47;100.00;100972.97;5125951;27;20019;-72
2021/12/03 00:07:50;;;;;;;55.88;41.58;;;;;;;-1.49;100.00;100969.41;5127076;27;20069;-73
2021/12/03 00:10:16;;;;;;;57.47;41.10;;;;;;;-1.54;100.00;100980.31;5128043;27;20023;-72
2021/12/03 00:12:42;;;;;;;61.97;43.60;;;;;;;-1.53;100.00;100980.44;5126158;27;20019;-72
2021/12/03 00:15:10;;;;;;;64.10;44.40;;;;;;;-1.58;100.00;100980.16;5128822;27;20106;-72
2021/12/03 00:17:36;;;;;;;60.15;44.35;;;;;;;-1.58;100.00;100979.28;5125263;27;20020;-72
2021/12/03 00:20:05;;;;;;;62.40;45.03;;;;;;;-1.58;100.00;100980.16;5128415;27;20039;-73
2021/12/03 00:22:30;;;;;;;68.50;47.03;;;;;;;-1.57;100.00;100981.06;5125246;27;20015;-72
2021/12/03 00:24:55;;;;;;;63.42;45.53;;;;;;;-1.60;100.00;100986.09;5128143;27;20080;-72
2021/12/03 00:27:21;;;;;;;71.85;49.25;;;;;;;-1.59;100.00;100980.06;5108087;27;20054;-73
2021/12/03 00:29:47;;;;;;;71.47;49.60;;;;;;;-1.58;100.00;100987.06;5126212;27;20031;-69
2021/12/03 00:32:12;;;;;;;72.53;50.22;;;;;;;-1.59;100.00;100980.06;5127801;27;20389;-68
2021/12/03 00:34:37;;;;;;;75.78;50.38;;;;;;;-1.60;100.00;100976.59;5125053;27;20076;-72
2021/12/03 00:37:03;;;;;;;77.13;50.20;;;;;;;-1.58;100.00;100984.47;5134169;27;20019;-72
2021/12/03 00:39:28;;;;;;;78.95;52.13;;;;;;;-1.56;100.00;100989.72;5125939;27;20045;-72
2021/12/03 00:42:00;;;;;;;78.65;51.53;;;;;;;-1.61;100.00;100992.06;5127043;27;20023;-72
2021/12/03 00:44:28;;;;;;;83.50;53.72;;;;;;;-1.61;100.00;100989.47;5125795;27;20027;-75
2021/12/03 00:46:54;;;;;;;83.60;52.45;;;;;;;-1.60;100.00;100986.97;5127016;27;20547;-72
2021/12/03 00:49:20;;;;;;;80.15;52.15;;;;;;;-1.62;100.00;100993.75;5107410;27;20071;-71
2021/12/03 00:51:45;;;;;;;78.05;51.83;;;;;;;-1.66;100.00;100990.91;5125790;27;20016;-72
2021/12/03 00:54:13;;;;;;;81.80;52.33;;;;;;;-1.66;100.00;100985.72;5127671;27;20392;-72
2021/12/03 00:56:38;;;;;;;88.40;55.47;;;;;;;-1.65;100.00;100987.50;5124342;27;20034;-71
2021/12/03 00:59:03;;;;;;;94.30;57.30;;;;;;;-1.66;100.00;100998.69;5127875;27;20023;-72
2021/12/03 01:01:29;;;;;;;103.22;59.20;;;;;;;-1.66;100.00;101001.28;5124979;27;20092;-71
2021/12/03 01:03:54;;;;;;;101.18;60.35;;;;;;;-1.66;100.00;100991.81;5126426;27;20080;-72
2021/12/03 01:06:20;;;;;;;106.68;65.07;;;;;;;-1.65;100.00;100991.00;5125996;27;20076;-72
2021/12/03 01:08:45;;;;;;;107.18;65.97;;;;;;;-1.66;100.00;100999.59;5125317;27;20077;-72
2021/12/03 01:11:11;;;;;;;105.38;62.78;;;;;;;-1.65;100.00;100997.88;5127236;27;20069;-71
2021/12/03 01:13:39;;;;;;;115.85;68.47;;;;;;;-1.64;100.00;100994.50;5124028;27;20024;-72
2021/12/03 01:16:06;;;;;;;119.07;70.75;;;;;;;-1.65;100.00;101005.66;5119768;27;20019;-71
2021/12/03 01:18:32;;;;;;;122.85;71.65;;;;;;;-1.70;100.00;101010.59;5127380;27;20027;-76
2021/12/03 01:20:58;;;;;;;138.90;83.15;;;;;;;-1.66;100.00;101007.38;5124381;27;20143;-78
2021/12/03 01:23:24;;;;;;;140.55;80.53;;;;;;;-1.66;100.00;101009.97;5126594;27;20032;-71
2021/12/03 01:25:49;;;;;;;148.35;82.63;;;;;;;-1.68;100.00;101006.38;5126175;27;20033;-69
2021/12/03 01:28:16;;;;;;;144.00;82.78;;;;;;;-1.72;100.00;101008.72;5124767;27;20019;-70
2021/12/03 01:30:41;;;;;;;147.30;85.93;;;;;;;-1.70;100.00;101017.44;5126846;27;20027;-70
2021/12/03 01:33:07;;;;;;;151.95;88.13;;;;;;;-1.69;100.00;101014.06;5123493;27;20037;-71
2021/12/03 01:35:34;;;;;;;149.43;86.97;;;;;;;-1.70;100.00;101009.69;5127534;27;20032;-70
2021/12/03 01:38:00;;;;;;;145.50;84.47;;;;;;;-1.68;100.00;101011.56;5124397;27;20024;-70
2021/12/03 01:40:28;;;;;;;145.70;87.57;;;;;;;-1.59;100.00;101026.75;5125872;27;20355;-70
2021/12/03 01:42:54;;;;;;;148.68;86.40;;;;;;;-1.60;100.00;101007.72;5127330;27;20030;-67
2021/12/03 01:45:24;;;;;;;140.38;84.72;;;;;;;-1.56;100.00;101013.94;5126545;27;20024;-71
2021/12/03 01:47:50;;;;;;;138.48;83.60;;;;;;;-1.55;100.00;101005.38;5126518;27;20030;-70
2021/12/03 01:50:17;;;;;;;137.95;81.38;;;;;;;-1.54;100.00;101004.56;5125374;27;20039;-70
2021/12/03 01:52:43;;;;;;;137.07;81.80;;;;;;;-1.52;100.00;100994.28;5127729;27;20023;-70
2021/12/03 01:55:11;;;;;;;137.30;81.97;;;;;;;-1.52;100.00;100995.16;5131292;27;20020;-71
2021/12/03 01:57:37;;;;;;;138.85;84.18;;;;;;;-1.48;100.00;100994.53;5148770;27;20027;-70
2021/12/03 02:00:10;;;;;;;144.57;82.03;;;;;;;-1.41;100.00;100993.19;5144237;27;20038;-71
2021/12/03 02:02:35;;;;;;;161.23;84.82;;;;;;;-1.39;100.00;101001.94;5121729;28;20083;-70
2021/12/03 02:05:01;;;;;;;172.93;92.47;;;;;;;-1.33;100.00;101002.25;5146531;27;20049;-71
2021/12/03 02:07:27;;;;;;;199.07;98.15;;;;;;;-1.31;100.00;101004.94;5144756;27;20041;-70
2021/12/03 02:09:52;;;;;;;215.38;97.75;;;;;;;-1.22;100.00;101002.84;5145389;27;20031;-71
2021/12/03 02:12:17;;;;;;;232.32;99.57;;;;;;;-1.19;100.00;101005.63;5130772;27;20019;-70
2021/12/03 02:14:43;;;;;;;234.10;94.80;;;;;;;-1.16;100.00;101008.38;5123770;27;20496;-68
2021/12/03 02:17:08;;;;;;;243.55;95.03;;;;;;;-1.11;100.00;101003.44;5126482;27;20035;-70
2021/12/03 02:19:34;;;;;;;257.10;97.32;;;;;;;-1.11;100.00;101016.41;5122473;27;20096;-69
2021/12/03 02:21:59;;;;;;;291.27;103.40;;;;;;;-1.11;100.00;101019.88;5126157;27;20027;-70
2021/12/03 02:24:24;;;;;;;307.45;100.43;;;;;;;-1.10;100.00;101013.88;5124008;27;20148;-69
2021/12/03 02:26:50;;;;;;;292.05;98.70;;;;;;;-1.04;100.00;101004.66;5123724;27;20019;-70
2021/12/03 02:29:16;;;;;;;324.20;101.70;;;;;;;-1.00;100.00;101001.44;5124888;27;20023;-70
2021/12/03 02:31:42;;;;;;;331.98;103.45;;;;;;;-1.00;100.00;100996.25;5122906;27;20539;-71
2021/12/03 02:34:08;;;;;;;328.15;101.68;;;;;;;-1.00;100.00;100994.53;5126375;27;20055;-69
2021/12/03 02:36:33;;;;;;;319.38;98.55;;;;;;;-0.95;100.00;100999.94;5122508;27;20032;-69
2021/12/03 02:38:59;;;;;;;302.95;94.00;;;;;;;-0.90;100.00;100993.31;5125175;27;20027;-70
2021/12/03 02:41:24;;;;;;;285.17;95.85;;;;;;;-0.87;100.00;100993.47;5123817;27;20038;-71
2021/12/03 02:43:50;;;;;;;305.13;96.03;;;;;;;-0.87;100.00;100996.06;5123881;27;20024;-71
2021/12/03 02:46:15;;;;;;;272.23;90.90;;;;;;;-0.83;100.00;100985.03;5125029;27;20111;-71
2021/12/03 02:48:41;;;;;;;255.30;94.60;;;;;;;-0.81;100.00;100990.31;5122587;27;20095;-70
2021/12/03 02:51:08;;;;;;;222.55;84.13;;;;;;;-0.77;100.00;100989.63;5125877;27;20027;-69
2021/12/03 02:53:35;;;;;;;237.43;93.57;;;;;;;-0.76;100.00;100991.44;5118075;27;20034;-68
2021/12/03 02:56:00;;;;;;;222.30;89.90;;;;;;;-0.75;100.00;100988.91;5125383;27;20027;-69
2021/12/03 02:58:26;;;;;;;226.80;86.85;;;;;;;-0.76;100.00;100994.94;5123429;27;20116;-68
2021/12/03 03:00:52;;;;;;;208.02;82.25;;;;;;;-0.75;100.00;100988.03;5123972;27;20024;-72
2021/12/03 03:03:18;;;;;;;212.07;86.53;;;;;;;-0.74;100.00;100993.31;5124409;27;20024;-69
2021/12/03 03:05:59;;;;;;;185.13;78.97;;;;;;;-0.68;100.00;100987.53;5122292;27;20034;-69
2021/12/03 03:08:24;;;;;;;185.35;76.05;;;;;;;-0.72;100.00;100977.81;5123557;27;20027;-68
2021/12/03 03:10:51;;;;;;;175.73;73.97;;;;;;;-0.69;100.00;100974.47;5123719;27;20054;-69
2021/12/03 03:13:16;;;;;;;172.23;71.68;;;;;;;-0.67;100.00;100975.44;5124577;27;20057;-68
2021/12/03 03:15:42;;;;;;;182.25;75.63;;;;;;;-0.73;100.00;100982.13;5122402;27;20052;-68
2021/12/03 03:18:20;;;;;;;170.57;72.45;;;;;;;-0.68;100.00;100976.25;5125337;27;20541;-73
2021/12/03 03:20:48;;;;;;;177.75;74.43;;;;;;;-0.68;100.00;100966.78;5120049;27;20051;-68
2021/12/03 03:23:15;;;;;;;177.00;75.78;;;;;;;-0.72;100.00;100964.81;5124389;27;20497;-68
2021/12/03 03:25:41;;;;;;;197.43;80.22;;;;;;;-0.73;100.00;100973.41;5122114;27;20028;-69
2021/12/03 03:28:08;;;;;;;193.65;81.22;;;;;;;-0.73;100.00;100979.53;5125552;27;20411;-69
2021/12/03 03:30:34;;;;;;;190.07;76.07;;;;;;;-0.63;100.00;100970.47;5121617;27;20049;-72
2021/12/03 03:32:59;;;;;;;204.82;79.40;;;;;;;-0.64;100.00;100975.59;5124150;27;20076;-69
2021/12/03 03:35:25;;;;;;;181.07;71.38;;;;;;;-0.65;100.00;100976.44;5123234;27;20030;-70
2021/12/03 03:37:50;;;;;;;196.25;75.82;;;;;;;-0.68;100.00;100984.03;5123151;27;20016;-71
2021/12/03 03:40:16;;;;;;;197.07;81.25;;;;;;;-0.68;100.00;100973.66;5124024;27;20548;-69
2021/12/03 03:42:41;;;;;;;193.82;75.43;;;;;;;-0.67;100.00;100973.75;5121944;28;20054;-70
2021/12/03 03:45:10;;;;;;;191.45;73.22;;;;;;;-0.65;100.00;100977.31;5125039;28;20023;-72
2021/12/03 03:47:37;;;;;;;197.27;76.72;;;;;;;-0.64;100.00;100976.50;5117492;28;20020;-70
2021/12/03 03:50:03;;;;;;;176.70;72.50;;;;;;;-0.55;100.00;100982.16;5124900;28;20027;-68
2021/12/03 03:52:29;;;;;;;184.63;72.47;;;;;;;-0.56;100.00;100974.28;5122430;28;20377;-70
2021/12/03 03:54:54;;;;;;;211.13;81.32;;;;;;;-0.55;100.00;100963.09;5123330;28;20049;-68
2021/12/03 03:57:20;;;;;;;208.23;80.35;;;;;;;-0.48;100.00;100972.09;5123792;28;20031;-69
2021/12/03 03:59:45;;;;;;;197.82;74.80;;;;;;;-0.50;100.00;100971.13;5122004;28;20489;-73
2021/12/03 04:02:11;;;;;;;195.32;74.75;;;;;;;-0.45;100.00;100970.56;5124812;28;20034;-73
2021/12/03 04:04:36;;;;;;;199.27;72.57;;;;;;;-0.43;100.00;100961.13;5121197;28;20120;-68
2021/12/03 04:07:02;;;;;;;177.40;68.88;;;;;;;-0.37;100.00;100955.34;5124272;28;20023;-74
2021/12/03 04:09:27;;;;;;;184.63;70.80;;;;;;;-0.42;100.00;100949.91;5122726;28;20026;-71
2021/12/03 04:11:53;;;;;;;178.32;67.45;;;;;;;-0.38;100.00;100953.56;5122985;28;20486;-71
2021/12/03 04:14:18;;;;;;;170.55;67.15;;;;;;;-0.39;100.00;100947.47;5123460;28;20024;-71
2021/12/03 04:16:44;;;;;;;152.45;64.63;;;;;;;-0.32;100.00;100955.56;5121802;28;20108;-69
2021/12/03 04:19:09;;;;;;;155.80;64.88;;;;;;;-0.31;100.00;100944.38;5124355;28;20039;-71
2021/12/03 04:21:34;;;;;;;152.45;64.80;;;;;;;-0.28;100.00;100939.31;5121140;28;20097;-70
2021/12/03 04:24:00;;;;;;;146.93;65.05;;;;;;;-0.31;100.00;100942.66;5124048;28;20028;-71
2021/12/03 04:26:25;;;;;;;150.77;64.18;;;;;;;-0.30;100.00;100953.97;5122336;28;20024;-69
2021/12/03 04:28:51;;;;;;;139.75;59.80;;;;;;;-0.29;100.00;100953.13;5122567;28;20019;-69
2021/12/03 04:31:16;;;;;;;136.75;61.22;;;;;;;-0.20;100.00;100948.41;5123846;28;20027;-69
2021/12/03 04:33:41;;;;;;;135.23;62.75;;;;;;;-0.25;100.00;100939.47;5121003;28;20027;-70
2021/12/03 04:36:07;;;;;;;144.57;66.13;;;;;;;-0.22;100.00;100943.13;5124635;28;20023;-69
2021/12/03 04:38:32;;;;;;;137.20;61.70;;;;;;;-0.21;100.00;100957.00;5121348;28;20031;-69
2021/12/03 04:41:01;;;;;;;132.43;60.85;;;;;;;-0.19;100.00;100939.75;5123328;28;20028;-69
2021/12/03 04:43:26;;;;;;;138.25;62.78;;;;;;;-0.22;100.00;100939.63;5122332;28;20022;-72
2021/12/03 04:45:52;;;;;;;139.68;65.70;;;;;;;-0.26;100.00;100948.97;5122513;28;20028;-69
2021/12/03 04:48:17;;;;;;;135.25;63.88;;;;;;;-0.21;100.00;100968.28;5123719;28;20110;-69
2021/12/03 04:50:44;;;;;;;143.88;64.72;;;;;;;-0.21;100.00;100951.81;5123493;27;20028;-69
2021/12/03 04:53:11;;;;;;;134.82;61.28;;;;;;;-0.16;100.00;100965.03;5128052;27;20023;-74
2021/12/03 04:55:37;;;;;;;126.97;61.67;;;;;;;-0.20;100.00;100940.59;5120921;27;20114;-73
2021/12/03 04:58:04;;;;;;;125.68;61.17;;;;;;;-0.20;100.00;100943.19;5127740;27;20059;-73
2021/12/03 05:00:37;;;;;;;117.57;58.30;;;;;;;-0.21;100.00;100957.88;5125114;27;20027;-69
2021/12/03 05:03:03;;;;;;;118.10;58.95;;;;;;;-0.20;100.00;100938.88;5127448;27;20030;-71
2021/12/03 05:05:32;;;;;;;104.22;54.35;;;;;;;-0.11;100.00;100935.84;5125265;27;20478;-69
2021/12/03 05:07:58;;;;;;;111.85;56.95;;;;;;;-0.15;100.00;100920.91;5126729;27;20378;-68
2021/12/03 05:10:29;;;;;;;108.65;57.85;;;;;;;-0.19;100.00;100934.56;5107280;27;20027;-68
2021/12/03 05:13:08;;;;;;;111.35;57.40;;;;;;;-0.18;100.00;100928.56;5125932;27;20027;-68
2021/12/03 05:15:35;;;;;;;99.32;53.53;;;;;;;-0.19;100.00;100922.50;5124296;27;20024;-68
2021/12/03 05:18:01;;;;;;;88.15;49.60;;;;;;;-0.16;100.00;100928.63;5126765;27;20494;-69
2021/12/03 05:20:27;;;;;;;86.97;48.22;;;;;;;-0.16;100.00;100906.16;5125078;27;20047;-69
2021/12/03 05:22:53;;;;;;;82.15;48.15;;;;;;;-0.17;100.00;100912.16;5125708;27;20023;-73
2021/12/03 05:25:19;;;;;;;78.97;47.40;;;;;;;-0.19;100.00;100908.59;5126759;27;20072;-69
2021/12/03 05:27:45;;;;;;;73.90;45.60;;;;;;;-0.19;100.00;100903.38;5124342;27;20489;-68
2021/12/03 05:30:11;;;;;;;70.05;42.90;;;;;;;-0.18;100.00;100924.25;5127365;27;20096;-69
2021/12/03 05:32:36;;;;;;;64.15;41.78;;;;;;;-0.16;100.00;100913.03;5119229;27;20050;-69
2021/12/03 05:35:03;;;;;;;67.10;41.15;;;;;;;-0.21;100.00;100916.31;5126539;27;20019;-68
2021/12/03 05:37:28;;;;;;;64.93;41.72;;;;;;;-0.23;100.00;100935.25;5124945;27;20098;-72
2021/12/03 05:39:53;;;;;;;66.05;42.28;;;;;;;-0.27;100.00;100926.41;5125312;27;20114;-72
2021/12/03 05:42:19;;;;;;;65.10;39.92;;;;;;;-0.26;100.00;100933.41;5125807;27;20033;-71
2021/12/03 05:44:44;;;;;;;66.53;40.00;;;;;;;-0.28;100.00;100928.94;5124129;27;20024;-73
2021/12/03 05:47:10;;;;;;;59.95;37.80;;;;;;;-0.28;100.00;100928.94;5127185;27;20066;-73
2021/12/03 05:49:35;;;;;;;59.10;37.58;;;;;;;-0.31;100.00;100926.19;5123188;27;20020;-73
2021/12/03 05:52:00;;;;;;;60.35;36.47;;;;;;;-0.28;100.00;100941.91;5126214;27;20110;-71
2021/12/03 05:54:27;;;;;;;59.53;36.38;;;;;;;-0.32;100.00;100937.38;5124620;27;20015;-71
2021/12/03 05:56:52;;;;;;;55.80;35.35;;;;;;;-0.29;100.00;100934.94;5124787;27;20108;-72
2021/12/03 05:59:18;;;;;;;56.97;34.67;;;;;;;-0.29;100.00;100932.34;5126034;27;20073;-72
2021/12/03 06:01:43;;;;;;;54.95;33.17;;;;;;;-0.23;100.00;100933.53;5122163;27;20509;-72
2021/12/03 06:04:08;;;;;;;50.25;31.75;;;;;;;-0.21;100.00;100931.00;5126515;27;20038;-70
2021/12/03 06:06:34;;;;;;;54.70;32.05;;;;;;;-0.21;100.00;100931.00;5123577;27;20031;-72
2021/12/03 06:08:59;;;;;;;52.47;31.63;;;;;;;-0.22;100.00;100929.22;5125742;27;20019;-71
2021/12/03 06:11:26;;;;;;;52.47;29.52;;;;;;;-0.15;100.00;100930.44;5124613;27;20470;-72
2021/12/03 06:13:52;;;;;;;50.42;28.58;;;;;;;-0.18;100.00;100925.97;5124237;27;20031;-72
2021/12/03 06:16:18;;;;;;;52.42;28.95;;;;;;;-0.13;100.00;100923.59;5125385;27;20019;-72
2021/12/03 06:18:43;;;;;;;47.15;26.20;;;;;;;-0.08;100.00;100917.81;5123166;27;20027;-72
2021/12/03 06:21:10;;;;;;;44.45;25.83;;;;;;;-0.06;100.00;100916.19;5125949;27;20390;-72
2021/12/03 06:23:36;;;;;;;46.65;25.02;;;;;;;-0.04;100.00;100914.53;5123008;27;20039;-68
2021/12/03 06:26:13;;;;;;;40.92;22.63;;;;;;;-0.03;100.00;100918.94;5125859;27;20032;-76
2021/12/03 06:28:40;;;;;;;45.88;24.25;;;;;;;-0.08;100.00;100916.91;5110176;27;20027;-72
2021/12/03 06:31:06;;;;;;;41.63;23.73;;;;;;;-0.07;100.00;100917.00;5115332;27;20038;-73
2021/12/03 06:33:32;;;;;;;41.42;22.85;;;;;;;-0.10;100.00;100914.25;5114582;27;20536;-72
2021/12/03 06:35:58;;;;;;;39.70;22.05;;;;;;;-0.05;100.00;100910.16;5114838;27;20024;-71
2021/12/03 06:38:24;;;;;;;42.88;22.33;;;;;;;-0.14;100.00;100907.13;5115180;27;20030;-72
2021/12/03 06:40:51;;;;;;;41.42;20.95;;;;;;;-0.10;100.00;100910.72;5120350;27;20087;-73
2021/12/03 06:43:18;;;;;;;40.22;21.17;;;;;;;-0.16;100.00;100913.03;5096391;28;20127;-73
2021/12/03 06:45:43;;;;;;;40.40;19.95;;;;;;;-0.18;100.00;100906.06;5116561;27;20413;-73
2021/12/03 06:48:09;;;;;;;40.33;19.77;;;;;;;-0.13;100.00;100908.00;5114622;27;20019;-69
2021/12/03 06:50:35;;;;;;;43.22;20.25;;;;;;;-0.13;100.00;100914.09;5114043;27;20028;-71
2021/12/03 06:53:10;;;;;;;36.53;18.35;;;;;;;-0.13;100.00;100906.31;5115779;27;20027;-72
2021/12/03 06:55:47;;;;;;;41.95;19.55;;;;;;;-0.13;100.00;100915.78;5114986;27;20431;-74
2021/12/03 06:58:17;;;;;;;38.30;18.50;;;;;;;-0.10;100.00;100919.44;5115756;27;20043;-79
2021/12/03 07:00:45;;;;;;;38.38;18.63;;;;;;;-0.16;100.00;100924.34;5114696;27;20122;-77
2021/12/03 07:03:10;;;;;;;33.20;17.25;;;;;;;-0.21;100.00;100915.44;5114780;27;20027;-78
2021/12/03 07:05:36;;;;;;;38.17;17.83;;;;;;;-0.15;100.00;100915.72;5112058;27;20096;-73
2021/12/03 07:08:01;;;;;;;35.72;16.98;;;;;;;-0.11;100.00;100909.84;5116905;27;20094;-72
2021/12/03 07:10:27;;;;;;;35.53;16.80;;;;;;;-0.13;100.00;100919.31;5116516;27;20031;-73
2021/12/03 07:12:53;;;;;;;40.30;17.55;;;;;;;-0.13;100.00;100914.09;5114103;27;20024;-72
2021/12/03 07:15:18;;;;;;;38.35;16.80;;;;;;;-0.09;100.00;100917.72;5112884;27;20084;-73
2021/12/03 07:17:43;;;;;;;33.95;15.60;;;;;;;-0.12;100.00;100905.47;5115935;27;20072;-74
2021/12/03 07:20:10;;;;;;;35.70;15.80;;;;;;;-0.08;100.00;100909.13;5115452;27;20122;-75
2021/12/03 07:22:35;;;;;;;34.60;14.93;;;;;;;-0.08;100.00;100896.13;5112412;27;20023;-71
2021/12/03 07:25:01;;;;;;;36.50;15.60;;;;;;;-0.08;100.00;100894.41;5117341;27;20363;-71
2021/12/03 07:27:27;;;;;;;35.08;14.77;;;;;;;-0.09;100.00;100890.03;5114213;27;20032;-71
2021/12/03 07:29:52;;;;;;;36.03;14.70;;;;;;;-0.07;100.00;100878.00;5125127;28;20027;-71
2021/12/03 07:32:20;;;;;;;34.72;14.85;;;;;;;-0.04;100.00;100880.75;5114618;28;20466;-71
2021/12/03 07:34:46;;;;;;;36.60;14.45;;;;;;;-0.04;100.00;100885.06;5113538;27;20035;-70
2021/12/03 07:37:11;;;;;;;35.08;13.45;;;;;;;0.02;100.00;100876.66;5116307;27;20027;-71
2021/12/03 07:39:38;;;;;;;33.20;13.02;;;;;;;0.01;100.00;100895.69;5115702;27;20020;-71
2021/12/03 07:42:04;;;;;;;31.67;12.70;;;;;;;-0.01;100.00;100899.09;5115971;28;20039;-71
2021/12/03 07:44:29;;;;;;;32.13;12.73;;;;;;;0.00;100.00;100897.41;5113625;28;20027;-70
2021/12/03 07:46:55;;;;;;;34.13;13.48;;;;;;;-0.01;100.00;100898.22;5115247;28;20031;-71
2021/12/03 07:49:22;;;;;;;33.30;12.35;;;;;;;0.05;100.00;100892.41;5115537;28;20023;-71
2021/12/03 07:51:47;;;;;;;33.80;12.98;;;;;;;0.05;100.00;100887.22;5092375;28;20472;-72
2021/12/03 07:54:12;;;;;;;35.33;13.30;;;;;;;0.08;100.00;100885.63;5114134;28;20076;-73
2021/12/03 07:56:38;;;;;;;33.15;11.98;;;;;;;0.14;100.00;100877.25;5114679;28;20032;-70
2021/12/03 07:59:04;;;;;;;33.47;12.30;;;;;;;0.18;100.00;100884.38;5112620;28;20034;-72
2021/12/03 08:01:30;;;;;;;35.05;12.52;;;;;;;0.15;100.00;100881.63;5115399;28;20031;-72
2021/12/03 08:03:56;;;;;;;33.30;12.52;;;;;;;0.17;100.00;100887.78;5114093;28;20032;-75
2021/12/03 08:06:22;;;;;;;36.45;12.30;;;;;;;0.26;100.00;100885.63;5115813;28;20027;-73
2021/12/03 08:08:47;;;;;;;32.72;11.80;;;;;;;0.23;100.00;100884.56;5114081;28;20060;-70
2021/12/03 08:11:13;;;;;;;34.25;11.82;;;;;;;0.34;100.00;100885.97;5113956;28;20028;-69
2021/12/03 08:13:38;;;;;;;35.88;12.15;;;;;;;0.25;100.00;100889.03;5107570;28;20051;-69
2021/12/03 08:16:04;;;;;;;35.38;12.95;;;;;;;0.23;100.00;100884.56;5111515;28;20031;-70
2021/12/03 08:18:29;;;;;;;36.92;11.80;;;;;;;0.29;100.00;100875.38;5094789;28;20057;-71
2021/12/03 08:20:55;;;;;;;34.92;11.25;;;;;;;0.28;100.00;100876.19;5114718;28;20142;-69
2021/12/03 08:23:21;;;;;;;31.70;11.18;;;;;;;0.31;100.00;100868.50;5117849;28;20042;-70
2021/12/03 08:25:46;;;;;;;34.63;11.18;;;;;;;0.37;100.00;100870.50;5120136;27;20109;-69
2021/12/03 08:28:12;;;;;;;33.97;11.65;;;;;;;0.37;100.00;100878.31;5120584;27;20059;-70
2021/12/03 08:30:38;;;;;;;35.08;11.57;;;;;;;0.42;100.00;100873.31;5116259;27;20023;-69
2021/12/03 08:33:03;;;;;;;33.90;11.00;;;;;;;0.43;100.00;100885.50;5120606;27;20031;-71
2021/12/03 08:35:29;;;;;;;32.30;11.02;;;;;;;0.46;100.00;100875.25;5119442;27;20034;-70
2021/12/03 08:37:55;;;;;;;36.90;10.63;;;;;;;0.50;100.00;100882.38;5120156;27;20050;-72
2021/12/03 08:40:21;;;;;;;34.00;10.18;;;;;;;0.54;100.00;100879.09;5120829;27;20022;-70
2021/12/03 08:42:47;;;;;;;33.80;10.32;;;;;;;0.54;100.00;100879.09;5116810;27;20020;-69
2021/12/03 08:45:15;;;;;;;32.33;10.10;;;;;;;0.55;100.00;100878.25;5119446;27;20036;-72
2021/12/03 08:47:41;;;;;;;31.90;9.88;;;;;;;0.55;100.00;100880.84;5117561;27;20023;-71
2021/12/03 08:50:13;;;;;;;33.63;10.85;;;;;;;0.56;100.00;100882.66;5117999;27;20534;-72
2021/12/03 08:55:13;;;;;;;29.52;9.55;;;;;;;0.65;100.00;100862.22;5119878;27;20066;-70
2021/12/03 08:57:39;;;;;;;31.48;9.73;;;;;;;0.74;100.00;100860.88;5098709;27;20077;-69
2021/12/03 09:00:15;;;;;;;29.77;9.60;;;;;;;0.80;100.00;100858.53;5117985;27;20026;-70
2021/12/03 09:02:41;;;;;;;33.20;10.10;;;;;;;0.82;100.00;100859.50;5115023;27;20027;-72
2021/12/03 09:05:08;;;;;;;28.75;9.43;;;;;;;0.82;100.00;100854.31;5115779;27;20034;-70
2021/12/03 09:07:35;;;;;;;31.40;9.73;;;;;;;0.84;100.00;100857.84;5117491;27;20032;-70
2021/12/03 09:10:04;;;;;;;30.98;10.10;;;;;;;0.89;100.00;100864.16;5117415;27;20491;-70
2021/12/03 09:12:29;;;;;;;30.38;9.63;;;;;;;0.96;100.00;100868.81;5116964;27;20476;-70
2021/12/03 09:14:59;;;;;;;28.63;8.95;;;;;;;1.00;100.00;100868.09;5115153;27;20083;-70
2021/12/03 09:22:50;;;;;;;31.92;10.20;;;;;;;1.04;100.00;100862.22;5116252;27;20046;-70
2021/12/03 09:25:21;;;;;;;33.30;10.85;;;;;;;1.16;100.00;100856.63;5118265;27;20040;-70
2021/12/03 09:27:47;;;;;;;34.78;11.00;;;;;;;1.10;100.00;100852.91;5115441;27;20023;-70
2021/12/03 09:30:15;;;;;;;31.25;10.25;;;;;;;1.18;100.00;100849.78;5113904;27;20039;-69
2021/12/03 09:32:45;;;;;;;32.22;10.52;;;;;;;1.23;100.00;100846.50;5118101;27;20020;-70
2021/12/03 09:35:11;;;;;;;32.47;10.40;;;;;;;1.31;100.00;100834.66;5096105;28;20084;-71
2021/12/03 09:37:36;;;;;;;31.15;9.65;;;;;;;1.37;100.00;100850.56;5094885;28;20027;-71
2021/12/03 09:40:06;;;;;;;33.83;10.15;;;;;;;1.42;100.00;100841.22;5114740;27;20102;-71
2021/12/03 09:42:35;;;;;;;28.50;9.73;;;;;;;1.39;100.00;100835.88;5094069;28;20027;-68
2021/12/03 09:45:01;;;;;;;28.88;9.18;;;;;;;1.35;100.00;100847.88;5114551;27;20024;-70
2021/12/03 09:47:27;;;;;;;31.17;10.38;;;;;;;1.36;100.00;100839.25;5116198;27;20462;-69
2021/12/03 09:49:55;;;;;;;30.48;9.93;;;;;;;1.31;100.00;100830.38;5117156;27;20035;-70
2021/12/03 09:54:50;;;;;;;32.05;10.00;;;;;;;1.38;100.00;100816.78;5117986;27;20042;-70
2021/12/03 09:57:36;;;;;;;33.88;10.57;;;;;;;1.39;100.00;100802.91;5116970;27;20454;-69
2021/12/03 10:00:12;;;;;;;30.00;9.45;;;;;;;1.38;100.00;100811.56;5101261;27;20123;-69
2021/12/03 10:13:29;;;;;;;29.60;9.02;;;;;;;1.53;100.00;100789.53;5115165;27;20069;-71
2021/12/03 10:18:44;;;;;;;27.15;8.45;;;;;;;1.68;100.00;100782.34;5114667;27;20032;-73
2021/12/03 10:43:32;;;;;;;30.50;9.40;;;;;;;2.07;100.00;100727.34;5039758;28;20068;-72
2021/12/03 10:51:58;;;;;;;30.02;9.68;;;;;;;2.16;100.00;100702.44;5032342;28;20036;-70
2021/12/03 10:57:44;;;;;;;27.90;10.02;;;;;;;2.27;100.00;100698.47;5039205;28;20047;-70
2021/12/03 11:37:57;;;;;;;27.00;9.50;;;;;;;2.94;100.00;100618.06;5117093;27;20032;-72
2021/12/03 11:52:15;;;;;;;25.70;9.00;;;;;;;3.29;99.74;100610.41;5130920;28;20105;-68
2021/12/03 12:12:11;;;;;;;23.27;8.50;;;;;;;3.35;96.72;100566.22;5117263;27;20077;-71
2021/12/03 13:03:56;;;;;;;23.33;6.60;;;;;;;3.53;87.97;100494.38;5121172;27;20042;-67
2021/12/03 14:06:14;;;;;;;21.15;6.57;;;;;;;2.76;100.00;100423.44;5016689;28;20181;-69
2021/12/03 14:27:56;;;;;;;20.88;6.80;;;;;;;2.84;100.00;100399.28;5018324;28;20401;-72
2021/12/03 14:37:34;;;;;;;21.95;6.72;;;;;;;2.84;100.00;100404.50;5111499;27;20057;-73
2021/12/03 14:53:38;;;;;;;22.83;7.88;;;;;;;2.77;100.00;100412.16;5110517;28;20039;-79
2021/12/03 14:56:07;;;;;;;21.90;7.90;;;;;;;2.77;100.00;100412.16;5110545;28;20101;-80
2021/12/03 14:58:48;;;;;;;22.95;7.82;;;;;;;2.78;100.00;100410.44;5120325;27;20023;-77
2021/12/03 15:28:02;;;;;;;21.98;8.70;;;;;;;2.53;100.00;100396.66;5030256;28;20034;-75
2021/12/03 15:33:27;;;;;;;21.80;9.07;;;;;;;2.49;100.00;100386.09;5028806;28;20033;-77
2021/12/03 15:35:57;;;;;;;21.35;8.88;;;;;;;2.41;100.00;100386.75;5027291;28;20247;-79
2021/12/03 16:08:09;;;;;;;23.75;11.38;;;;;;;2.30;100.00;100354.25;5117964;28;20024;-72
2021/12/03 16:24:35;;;;;;;25.65;14.15;;;;;;;2.24;100.00;100346.22;4950125;29;20079;-70
2021/12/03 16:51:24;;;;;;;26.33;16.38;;;;;;;2.29;100.00;100315.94;4953653;29;20055;-68
2021/12/03 16:53:52;;;;;;;25.52;15.80;;;;;;;2.24;100.00;100315.81;4939213;29;20420;-68
2021/12/03 16:56:36;;;;;;;26.13;16.20;;;;;;;2.28;100.00;100318.53;4999631;28;20060;-67
2021/12/03 16:59:03;;;;;;;26.55;16.35;;;;;;;2.25;100.00;100314.09;5099959;28;20036;-67
2021/12/03 17:23:08;;;;;;;26.80;17.63;;;;;;;2.26;100.00;100314.13;5015351;28;20061;-69
2021/12/03 17:49:48;;;;;;;26.77;16.73;;;;;;;2.22;100.00;100220.09;5075972;28;20384;-73
2021/12/03 17:55:21;;;;;;;27.63;17.23;;;;;;;2.20;100.00;100216.56;5077198;28;20036;-69
2021/12/03 18:03:05;;;;;;;28.15;17.27;;;;;;;2.22;100.00;100197.50;5076334;28;20028;-68